sensor_id;sensor_type;location;lat;lon;timestamp;P1;durP1;ratioP1;P2;durP2;ratioP2
10450;SDS011;5273;51.290;6.918;2022-12-07T00:00:44;21.60;;;13.97;;
10450;SDS011;5273;51.290;6.918;2022-12-07T00:03:11;23.63;;;14.47;;
10450;SDS011;5273;51.290;6.918;2022-12-07T00:05:38;19.10;;;14.17;;
10450;SDS011;5273;51.290;6.918;2022-12-07T00:08:06;21.43;;;14.40;;
10450;SDS011;5273;51.290;6.918;2022-12-07T00:10:33;22.97;;;15.03;;
10450;SDS011;5273;51.290;6.918;2022-12-07T00:13:00;22.97;;;14.97;;
10450;SDS011;5273;51.290;6.918;2022-12-07T00:15:26;26.27;;;15.00;;
10450;SDS011;5273;51.290;6.918;2022-12-07T00:17:53;24.63;;;14.93;;
10450;SDS011;5273;51.290;6.918;2022-12-07T00:20:20;24.27;;;15.37;;
10450;SDS011;5273;51.290;6.918;2022-12-07T00:22:47;21.43;;;13.83;;
10450;SDS011;5273;51.290;6.918;2022-12-07T00:25:15;23.00;;;14.23;;
10450;SDS011;5273;51.290;6.918;2022-12-07T00:27:42;22.57;;;14.77;;
10450;SDS011;5273;51.290;6.918;2022-12-07T00:30:09;20.80;;;14.30;;
10450;SDS011;5273;51.290;6.918;2022-12-07T00:32:36;22.37;;;14.63;;
10450;SDS011;5273;51.290;6.918;2022-12-07T00:35:03;23.07;;;15.60;;
10450;SDS011;5273;51.290;6.918;2022-12-07T00:37:30;24.53;;;13.83;;
10450;SDS011;5273;51.290;6.918;2022-12-07T00:39:57;23.87;;;15.53;;
10450;SDS011;5273;51.290;6.918;2022-12-07T00:42:25;25.17;;;14.93;;
10450;SDS011;5273;51.290;6.918;2022-12-07T00:44:51;25.53;;;15.47;;
10450;SDS011;5273;51.290;6.918;2022-12-07T00:47:18;22.53;;;15.17;;
10450;SDS011;5273;51.290;6.918;2022-12-07T00:49:45;26.83;;;15.30;;
10450;SDS011;5273;51.290;6.918;2022-12-07T00:52:12;24.00;;;16.13;;
10450;SDS011;5273;51.290;6.918;2022-12-07T00:54:39;27.27;;;15.57;;
10450;SDS011;5273;51.290;6.918;2022-12-07T00:57:06;25.87;;;16.07;;
10450;SDS011;5273;51.290;6.918;2022-12-07T00:59:34;25.83;;;15.07;;
10450;SDS011;5273;51.290;6.918;2022-12-07T01:02:01;20.83;;;14.03;;
10450;SDS011;5273;51.290;6.918;2022-12-07T01:04:28;23.17;;;14.53;;
10450;SDS011;5273;51.290;6.918;2022-12-07T01:06:55;24.00;;;15.70;;
10450;SDS011;5273;51.290;6.918;2022-12-07T01:09:22;24.50;;;16.07;;
10450;SDS011;5273;51.290;6.918;2022-12-07T01:11:49;23.83;;;15.33;;
10450;SDS011;5273;51.290;6.918;2022-12-07T01:14:15;22.10;;;15.57;;
10450;SDS011;5273;51.290;6.918;2022-12-07T01:16:43;26.33;;;16.13;;
10450;SDS011;5273;51.290;6.918;2022-12-07T01:19:11;22.17;;;15.57;;
10450;SDS011;5273;51.290;6.918;2022-12-07T01:21:37;22.70;;;15.63;;
10450;SDS011;5273;51.290;6.918;2022-12-07T01:24:05;24.87;;;15.37;;
10450;SDS011;5273;51.290;6.918;2022-12-07T01:26:35;23.50;;;15.97;;
10450;SDS011;5273;51.290;6.918;2022-12-07T01:29:01;24.90;;;14.93;;
10450;SDS011;5273;51.290;6.918;2022-12-07T01:31:28;22.17;;;15.60;;
10450;SDS011;5273;51.290;6.918;2022-12-07T01:33:57;27.60;;;16.10;;
10450;SDS011;5273;51.290;6.918;2022-12-07T01:36:26;29.20;;;15.97;;
10450;SDS011;5273;51.290;6.918;2022-12-07T01:38:54;24.97;;;15.87;;
10450;SDS011;5273;51.290;6.918;2022-12-07T01:41:23;27.63;;;16.83;;
10450;SDS011;5273;51.290;6.918;2022-12-07T01:46:47;25.73;;;16.00;;
10450;SDS011;5273;51.290;6.918;2022-12-07T01:49:17;24.03;;;16.17;;
10450;SDS011;5273;51.290;6.918;2022-12-07T01:51:49;26.20;;;15.87;;
10450;SDS011;5273;51.290;6.918;2022-12-07T01:54:18;26.97;;;16.33;;
10450;SDS011;5273;51.290;6.918;2022-12-07T01:56:48;23.73;;;16.47;;
10450;SDS011;5273;51.290;6.918;2022-12-07T01:59:17;25.87;;;15.97;;
10450;SDS011;5273;51.290;6.918;2022-12-07T02:01:47;27.70;;;16.97;;
10450;SDS011;5273;51.290;6.918;2022-12-07T02:04:14;22.93;;;16.17;;
10450;SDS011;5273;51.290;6.918;2022-12-07T02:06:43;27.23;;;17.03;;
10450;SDS011;5273;51.290;6.918;2022-12-07T02:09:11;28.60;;;16.87;;
10450;SDS011;5273;51.290;6.918;2022-12-07T02:11:38;27.07;;;16.30;;
10450;SDS011;5273;51.290;6.918;2022-12-07T02:14:06;27.90;;;16.97;;
10450;SDS011;5273;51.290;6.918;2022-12-07T02:16:34;26.13;;;17.27;;
10450;SDS011;5273;51.290;6.918;2022-12-07T02:22:22;25.57;;;16.20;;
10450;SDS011;5273;51.290;6.918;2022-12-07T02:25:07;31.37;;;17.47;;
10450;SDS011;5273;51.290;6.918;2022-12-07T02:27:43;27.87;;;16.77;;
10450;SDS011;5273;51.290;6.918;2022-12-07T02:30:15;23.27;;;16.33;;
10450;SDS011;5273;51.290;6.918;2022-12-07T02:32:48;24.70;;;16.77;;
10450;SDS011;5273;51.290;6.918;2022-12-07T02:35:21;24.13;;;16.47;;
10450;SDS011;5273;51.290;6.918;2022-12-07T02:37:57;23.63;;;15.60;;
10450;SDS011;5273;51.290;6.918;2022-12-07T02:40:29;26.10;;;16.17;;
10450;SDS011;5273;51.290;6.918;2022-12-07T02:43:01;26.07;;;16.10;;
10450;SDS011;5273;51.290;6.918;2022-12-07T02:45:34;26.27;;;17.10;;
10450;SDS011;5273;51.290;6.918;2022-12-07T02:48:03;23.00;;;15.77;;
10450;SDS011;5273;51.290;6.918;2022-12-07T02:50:33;23.77;;;16.07;;
10450;SDS011;5273;51.290;6.918;2022-12-07T02:52:59;27.37;;;15.70;;
10450;SDS011;5273;51.290;6.918;2022-12-07T02:55:28;24.47;;;16.53;;
10450;SDS011;5273;51.290;6.918;2022-12-07T02:58:02;24.37;;;17.93;;
10450;SDS011;5273;51.290;6.918;2022-12-07T03:00:42;26.87;;;16.27;;
10450;SDS011;5273;51.290;6.918;2022-12-07T03:03:15;28.47;;;17.63;;
10450;SDS011;5273;51.290;6.918;2022-12-07T03:05:46;28.40;;;17.27;;
10450;SDS011;5273;51.290;6.918;2022-12-07T03:08:21;24.97;;;15.77;;
10450;SDS011;5273;51.290;6.918;2022-12-07T03:10:55;24.77;;;16.57;;
10450;SDS011;5273;51.290;6.918;2022-12-07T03:13:25;29.80;;;17.13;;
10450;SDS011;5273;51.290;6.918;2022-12-07T03:16:01;28.97;;;17.00;;
10450;SDS011;5273;51.290;6.918;2022-12-07T03:18:32;26.07;;;17.10;;
10450;SDS011;5273;51.290;6.918;2022-12-07T03:21:05;23.70;;;16.80;;
10450;SDS011;5273;51.290;6.918;2022-12-07T03:23:35;28.23;;;17.30;;
10450;SDS011;5273;51.290;6.918;2022-12-07T03:26:05;26.77;;;17.53;;
10450;SDS011;5273;51.290;6.918;2022-12-07T03:28:36;31.77;;;19.47;;
10450;SDS011;5273;51.290;6.918;2022-12-07T03:31:09;26.37;;;17.13;;
10450;SDS011;5273;51.290;6.918;2022-12-07T03:33:42;23.13;;;16.90;;
10450;SDS011;5273;51.290;6.918;2022-12-07T03:36:14;27.20;;;17.63;;
10450;SDS011;5273;51.290;6.918;2022-12-07T03:38:48;31.53;;;17.83;;
10450;SDS011;5273;51.290;6.918;2022-12-07T03:41:18;31.90;;;18.63;;
10450;SDS011;5273;51.290;6.918;2022-12-07T03:43:49;27.37;;;17.87;;
10450;SDS011;5273;51.290;6.918;2022-12-07T03:46:19;31.77;;;19.63;;
10450;SDS011;5273;51.290;6.918;2022-12-07T03:48:55;37.13;;;20.67;;
10450;SDS011;5273;51.290;6.918;2022-12-07T03:51:28;31.57;;;19.80;;
10450;SDS011;5273;51.290;6.918;2022-12-07T03:54:00;31.70;;;17.67;;
10450;SDS011;5273;51.290;6.918;2022-12-07T03:56:33;30.20;;;19.27;;
10450;SDS011;5273;51.290;6.918;2022-12-07T03:59:02;27.70;;;19.50;;
10450;SDS011;5273;51.290;6.918;2022-12-07T04:01:31;29.47;;;18.27;;
10450;SDS011;5273;51.290;6.918;2022-12-07T04:03:58;30.70;;;18.83;;
10450;SDS011;5273;51.290;6.918;2022-12-07T04:06:24;30.00;;;18.40;;
10450;SDS011;5273;51.290;6.918;2022-12-07T04:08:51;28.40;;;18.37;;
10450;SDS011;5273;51.290;6.918;2022-12-07T04:11:18;27.33;;;16.17;;
10450;SDS011;5273;51.290;6.918;2022-12-07T04:13:45;25.40;;;17.20;;
10450;SDS011;5273;51.290;6.918;2022-12-07T04:16:42;27.83;;;17.20;;
10450;SDS011;5273;51.290;6.918;2022-12-07T04:19:09;28.63;;;17.57;;
10450;SDS011;5273;51.290;6.918;2022-12-07T04:21:36;25.63;;;16.57;;
10450;SDS011;5273;51.290;6.918;2022-12-07T04:24:03;32.80;;;17.57;;
10450;SDS011;5273;51.290;6.918;2022-12-07T04:26:30;26.73;;;16.77;;
10450;SDS011;5273;51.290;6.918;2022-12-07T04:28:57;25.83;;;15.83;;
10450;SDS011;5273;51.290;6.918;2022-12-07T04:31:24;21.10;;;14.23;;
10450;SDS011;5273;51.290;6.918;2022-12-07T04:33:52;26.23;;;14.97;;
10450;SDS011;5273;51.290;6.918;2022-12-07T04:36:19;23.03;;;14.80;;
10450;SDS011;5273;51.290;6.918;2022-12-07T04:38:45;20.33;;;14.00;;
10450;SDS011;5273;51.290;6.918;2022-12-07T04:41:13;22.70;;;14.70;;
10450;SDS011;5273;51.290;6.918;2022-12-07T04:43:40;21.27;;;15.47;;
10450;SDS011;5273;51.290;6.918;2022-12-07T04:46:07;21.50;;;14.87;;
10450;SDS011;5273;51.290;6.918;2022-12-07T04:48:33;20.53;;;13.50;;
10450;SDS011;5273;51.290;6.918;2022-12-07T04:51:03;21.67;;;14.43;;
10450;SDS011;5273;51.290;6.918;2022-12-07T04:53:30;21.63;;;15.33;;
10450;SDS011;5273;51.290;6.918;2022-12-07T04:55:57;22.07;;;15.33;;
10450;SDS011;5273;51.290;6.918;2022-12-07T04:58:26;25.03;;;14.30;;
10450;SDS011;5273;51.290;6.918;2022-12-07T05:00:53;21.70;;;14.90;;
10450;SDS011;5273;51.290;6.918;2022-12-07T05:03:20;23.57;;;15.33;;
10450;SDS011;5273;51.290;6.918;2022-12-07T05:05:47;24.00;;;15.30;;
10450;SDS011;5273;51.290;6.918;2022-12-07T05:08:15;25.67;;;15.00;;
10450;SDS011;5273;51.290;6.918;2022-12-07T05:10:42;21.80;;;13.70;;
10450;SDS011;5273;51.290;6.918;2022-12-07T05:13:09;21.20;;;14.00;;
10450;SDS011;5273;51.290;6.918;2022-12-07T05:15:36;22.80;;;13.50;;
10450;SDS011;5273;51.290;6.918;2022-12-07T05:18:02;20.57;;;13.67;;
10450;SDS011;5273;51.290;6.918;2022-12-07T05:20:29;23.63;;;14.10;;
10450;SDS011;5273;51.290;6.918;2022-12-07T05:22:56;27.13;;;14.90;;
10450;SDS011;5273;51.290;6.918;2022-12-07T05:25:25;21.77;;;14.30;;
10450;SDS011;5273;51.290;6.918;2022-12-07T05:27:52;22.07;;;14.33;;
10450;SDS011;5273;51.290;6.918;2022-12-07T05:30:20;20.73;;;12.93;;
10450;SDS011;5273;51.290;6.918;2022-12-07T05:32:47;19.83;;;12.87;;
10450;SDS011;5273;51.290;6.918;2022-12-07T05:35:14;25.37;;;13.50;;
10450;SDS011;5273;51.290;6.918;2022-12-07T05:37:41;21.10;;;13.73;;
10450;SDS011;5273;51.290;6.918;2022-12-07T05:40:08;23.13;;;12.83;;
10450;SDS011;5273;51.290;6.918;2022-12-07T05:42:37;21.87;;;13.20;;
10450;SDS011;5273;51.290;6.918;2022-12-07T05:45:05;19.67;;;13.33;;
10450;SDS011;5273;51.290;6.918;2022-12-07T05:47:32;18.17;;;12.50;;
10450;SDS011;5273;51.290;6.918;2022-12-07T05:49:59;17.47;;;11.83;;
10450;SDS011;5273;51.290;6.918;2022-12-07T05:52:26;16.03;;;12.33;;
10450;SDS011;5273;51.290;6.918;2022-12-07T05:54:53;17.80;;;11.97;;
10450;SDS011;5273;51.290;6.918;2022-12-07T05:57:19;22.73;;;12.17;;
10450;SDS011;5273;51.290;6.918;2022-12-07T05:59:48;21.17;;;12.33;;
10450;SDS011;5273;51.290;6.918;2022-12-07T06:02:14;17.87;;;11.60;;
10450;SDS011;5273;51.290;6.918;2022-12-07T06:04:43;18.17;;;10.77;;
10450;SDS011;5273;51.290;6.918;2022-12-07T06:07:11;18.57;;;11.90;;
10450;SDS011;5273;51.290;6.918;2022-12-07T06:09:39;17.30;;;10.43;;
10450;SDS011;5273;51.290;6.918;2022-12-07T06:12:06;20.77;;;11.30;;
10450;SDS011;5273;51.290;6.918;2022-12-07T06:14:54;17.90;;;10.70;;
10450;SDS011;5273;51.290;6.918;2022-12-07T06:17:21;14.73;;;10.77;;
10450;SDS011;5273;51.290;6.918;2022-12-07T06:19:48;17.97;;;11.43;;
10450;SDS011;5273;51.290;6.918;2022-12-07T06:22:15;17.60;;;11.77;;
10450;SDS011;5273;51.290;6.918;2022-12-07T06:24:42;15.43;;;11.73;;
10450;SDS011;5273;51.290;6.918;2022-12-07T06:27:09;18.60;;;12.33;;
10450;SDS011;5273;51.290;6.918;2022-12-07T06:29:36;17.97;;;11.37;;
10450;SDS011;5273;51.290;6.918;2022-12-07T06:32:04;16.63;;;11.13;;
10450;SDS011;5273;51.290;6.918;2022-12-07T06:34:31;16.60;;;11.73;;
10450;SDS011;5273;51.290;6.918;2022-12-07T06:36:58;19.73;;;10.53;;
10450;SDS011;5273;51.290;6.918;2022-12-07T06:39:26;17.63;;;10.83;;
10450;SDS011;5273;51.290;6.918;2022-12-07T06:41:54;15.03;;;9.70;;
10450;SDS011;5273;51.290;6.918;2022-12-07T06:44:22;16.37;;;9.83;;
10450;SDS011;5273;51.290;6.918;2022-12-07T06:46:49;17.63;;;10.93;;
10450;SDS011;5273;51.290;6.918;2022-12-07T06:49:18;17.67;;;10.80;;
10450;SDS011;5273;51.290;6.918;2022-12-07T06:51:45;13.47;;;9.50;;
10450;SDS011;5273;51.290;6.918;2022-12-07T06:54:13;15.37;;;10.00;;
10450;SDS011;5273;51.290;6.918;2022-12-07T06:56:40;17.10;;;10.03;;
10450;SDS011;5273;51.290;6.918;2022-12-07T06:59:08;17.00;;;9.93;;
10450;SDS011;5273;51.290;6.918;2022-12-07T07:01:35;16.90;;;10.73;;
10450;SDS011;5273;51.290;6.918;2022-12-07T07:04:02;17.50;;;9.70;;
10450;SDS011;5273;51.290;6.918;2022-12-07T07:06:30;16.20;;;9.37;;
10450;SDS011;5273;51.290;6.918;2022-12-07T07:08:57;18.57;;;10.77;;
10450;SDS011;5273;51.290;6.918;2022-12-07T07:11:24;14.23;;;10.00;;
10450;SDS011;5273;51.290;6.918;2022-12-07T07:13:51;16.30;;;9.23;;
10450;SDS011;5273;51.290;6.918;2022-12-07T07:16:18;14.63;;;10.10;;
10450;SDS011;5273;51.290;6.918;2022-12-07T07:18:45;18.70;;;11.97;;
10450;SDS011;5273;51.290;6.918;2022-12-07T07:21:12;17.20;;;10.17;;
10450;SDS011;5273;51.290;6.918;2022-12-07T07:23:40;13.23;;;8.93;;
10450;SDS011;5273;51.290;6.918;2022-12-07T07:26:07;15.83;;;9.57;;
10450;SDS011;5273;51.290;6.918;2022-12-07T07:28:34;19.37;;;9.13;;
10450;SDS011;5273;51.290;6.918;2022-12-07T07:31:01;12.27;;;8.57;;
10450;SDS011;5273;51.290;6.918;2022-12-07T07:33:28;10.83;;;8.43;;
10450;SDS011;5273;51.290;6.918;2022-12-07T07:35:54;13.13;;;9.50;;
10450;SDS011;5273;51.290;6.918;2022-12-07T07:38:21;17.03;;;10.17;;
10450;SDS011;5273;51.290;6.918;2022-12-07T07:40:49;15.43;;;10.20;;
10450;SDS011;5273;51.290;6.918;2022-12-07T07:43:16;14.77;;;9.43;;
10450;SDS011;5273;51.290;6.918;2022-12-07T07:45:43;14.27;;;9.13;;
10450;SDS011;5273;51.290;6.918;2022-12-07T07:48:10;17.00;;;9.03;;
10450;SDS011;5273;51.290;6.918;2022-12-07T07:50:37;21.80;;;8.70;;
10450;SDS011;5273;51.290;6.918;2022-12-07T07:53:04;12.90;;;9.73;;
10450;SDS011;5273;51.290;6.918;2022-12-07T07:55:31;13.90;;;9.40;;
10450;SDS011;5273;51.290;6.918;2022-12-07T07:57:59;12.33;;;9.37;;
10450;SDS011;5273;51.290;6.918;2022-12-07T08:00:25;14.63;;;9.77;;
10450;SDS011;5273;51.290;6.918;2022-12-07T08:02:52;13.40;;;9.03;;
10450;SDS011;5273;51.290;6.918;2022-12-07T08:05:19;17.33;;;10.13;;
10450;SDS011;5273;51.290;6.918;2022-12-07T08:07:46;14.17;;;9.00;;
10450;SDS011;5273;51.290;6.918;2022-12-07T08:10:14;14.83;;;9.40;;
10450;SDS011;5273;51.290;6.918;2022-12-07T08:12:42;13.93;;;8.50;;
10450;SDS011;5273;51.290;6.918;2022-12-07T08:15:28;10.77;;;7.83;;
10450;SDS011;5273;51.290;6.918;2022-12-07T08:17:56;12.67;;;8.20;;
10450;SDS011;5273;51.290;6.918;2022-12-07T08:20:23;9.33;;;7.63;;
10450;SDS011;5273;51.290;6.918;2022-12-07T08:22:50;12.20;;;7.50;;
10450;SDS011;5273;51.290;6.918;2022-12-07T08:25:17;9.53;;;7.33;;
10450;SDS011;5273;51.290;6.918;2022-12-07T08:27:43;10.53;;;7.47;;
10450;SDS011;5273;51.290;6.918;2022-12-07T08:30:10;10.53;;;7.90;;
10450;SDS011;5273;51.290;6.918;2022-12-07T08:32:39;12.43;;;7.17;;
10450;SDS011;5273;51.290;6.918;2022-12-07T08:35:06;8.80;;;6.97;;
10450;SDS011;5273;51.290;6.918;2022-12-07T08:37:33;7.63;;;6.23;;
10450;SDS011;5273;51.290;6.918;2022-12-07T08:40:00;8.93;;;5.80;;
10450;SDS011;5273;51.290;6.918;2022-12-07T08:42:27;11.33;;;6.90;;
10450;SDS011;5273;51.290;6.918;2022-12-07T08:45:02;7.67;;;5.63;;
10450;SDS011;5273;51.290;6.918;2022-12-07T08:47:30;6.93;;;5.20;;
10450;SDS011;5273;51.290;6.918;2022-12-07T08:49:58;9.47;;;5.57;;
10450;SDS011;5273;51.290;6.918;2022-12-07T08:52:28;8.30;;;5.90;;
10450;SDS011;5273;51.290;6.918;2022-12-07T08:54:55;5.93;;;4.97;;
10450;SDS011;5273;51.290;6.918;2022-12-07T08:57:22;7.30;;;5.43;;
10450;SDS011;5273;51.290;6.918;2022-12-07T08:59:49;7.50;;;5.27;;
10450;SDS011;5273;51.290;6.918;2022-12-07T09:02:16;7.53;;;5.63;;
10450;SDS011;5273;51.290;6.918;2022-12-07T09:04:43;7.47;;;4.97;;
10450;SDS011;5273;51.290;6.918;2022-12-07T09:07:11;10.40;;;5.70;;
10450;SDS011;5273;51.290;6.918;2022-12-07T09:09:38;10.27;;;5.20;;
10450;SDS011;5273;51.290;6.918;2022-12-07T09:12:05;8.43;;;5.27;;
10450;SDS011;5273;51.290;6.918;2022-12-07T09:14:32;5.63;;;4.80;;
10450;SDS011;5273;51.290;6.918;2022-12-07T09:17:04;7.07;;;4.57;;
10450;SDS011;5273;51.290;6.918;2022-12-07T09:19:32;6.50;;;4.70;;
10450;SDS011;5273;51.290;6.918;2022-12-07T09:21:58;6.87;;;4.70;;
10450;SDS011;5273;51.290;6.918;2022-12-07T09:24:27;9.03;;;4.70;;
10450;SDS011;5273;51.290;6.918;2022-12-07T09:26:54;8.47;;;4.70;;
10450;SDS011;5273;51.290;6.918;2022-12-07T09:29:20;10.50;;;5.13;;
10450;SDS011;5273;51.290;6.918;2022-12-07T09:31:47;6.43;;;4.67;;
10450;SDS011;5273;51.290;6.918;2022-12-07T09:34:14;8.40;;;4.27;;
10450;SDS011;5273;51.290;6.918;2022-12-07T09:36:41;8.07;;;4.93;;
10450;SDS011;5273;51.290;6.918;2022-12-07T09:39:08;5.70;;;4.67;;
10450;SDS011;5273;51.290;6.918;2022-12-07T09:41:38;6.37;;;4.10;;
10450;SDS011;5273;51.290;6.918;2022-12-07T09:44:07;8.97;;;4.50;;
10450;SDS011;5273;51.290;6.918;2022-12-07T09:46:38;6.17;;;4.37;;
10450;SDS011;5273;51.290;6.918;2022-12-07T09:49:08;6.57;;;3.87;;
10450;SDS011;5273;51.290;6.918;2022-12-07T09:51:38;8.90;;;4.17;;
10450;SDS011;5273;51.290;6.918;2022-12-07T09:54:05;6.27;;;3.73;;
10450;SDS011;5273;51.290;6.918;2022-12-07T09:56:32;7.50;;;4.40;;
10450;SDS011;5273;51.290;6.918;2022-12-07T09:59:00;8.23;;;4.63;;
10450;SDS011;5273;51.290;6.918;2022-12-07T10:01:29;4.27;;;3.43;;
10450;SDS011;5273;51.290;6.918;2022-12-07T10:03:59;4.60;;;3.80;;
10450;SDS011;5273;51.290;6.918;2022-12-07T10:06:33;5.43;;;3.70;;
10450;SDS011;5273;51.290;6.918;2022-12-07T10:08:59;5.67;;;4.20;;
10450;SDS011;5273;51.290;6.918;2022-12-07T10:11:27;5.10;;;4.20;;
10450;SDS011;5273;51.290;6.918;2022-12-07T10:13:54;7.97;;;4.27;;
10450;SDS011;5273;51.290;6.918;2022-12-07T10:16:38;8.07;;;4.13;;
10450;SDS011;5273;51.290;6.918;2022-12-07T10:19:17;6.43;;;4.37;;
10450;SDS011;5273;51.290;6.918;2022-12-07T10:21:58;6.10;;;3.80;;
10450;SDS011;5273;51.290;6.918;2022-12-07T10:24:29;5.77;;;4.30;;
10450;SDS011;5273;51.290;6.918;2022-12-07T10:26:57;5.50;;;3.90;;
10450;SDS011;5273;51.290;6.918;2022-12-07T10:29:24;9.37;;;3.87;;
10450;SDS011;5273;51.290;6.918;2022-12-07T10:31:57;6.83;;;3.90;;
10450;SDS011;5273;51.290;6.918;2022-12-07T10:34:26;6.27;;;3.93;;
10450;SDS011;5273;51.290;6.918;2022-12-07T10:37:06;10.60;;;3.80;;
10450;SDS011;5273;51.290;6.918;2022-12-07T10:39:41;5.03;;;4.03;;
10450;SDS011;5273;51.290;6.918;2022-12-07T10:42:15;7.00;;;4.50;;
10450;SDS011;5273;51.290;6.918;2022-12-07T10:44:43;6.80;;;4.80;;
10450;SDS011;5273;51.290;6.918;2022-12-07T10:47:23;10.37;;;4.63;;
10450;SDS011;5273;51.290;6.918;2022-12-07T10:50:08;5.53;;;5.00;;
10450;SDS011;5273;51.290;6.918;2022-12-07T10:52:50;7.23;;;5.33;;
10450;SDS011;5273;51.290;6.918;2022-12-07T10:55:32;7.10;;;4.60;;
10450;SDS011;5273;51.290;6.918;2022-12-07T10:58:12;4.73;;;4.10;;
10450;SDS011;5273;51.290;6.918;2022-12-07T11:00:51;6.47;;;4.53;;
10450;SDS011;5273;51.290;6.918;2022-12-07T11:03:36;9.00;;;3.93;;
10450;SDS011;5273;51.290;6.918;2022-12-07T11:06:14;4.97;;;4.10;;
10450;SDS011;5273;51.290;6.918;2022-12-07T11:08:53;4.83;;;3.97;;
10450;SDS011;5273;51.290;6.918;2022-12-07T11:11:30;5.73;;;3.50;;
10450;SDS011;5273;51.290;6.918;2022-12-07T11:14:03;4.30;;;3.30;;
10450;SDS011;5273;51.290;6.918;2022-12-07T11:16:45;4.50;;;3.20;;
10450;SDS011;5273;51.290;6.918;2022-12-07T11:19:23;5.40;;;2.90;;
10450;SDS011;5273;51.290;6.918;2022-12-07T11:21:58;7.40;;;3.20;;
10450;SDS011;5273;51.290;6.918;2022-12-07T11:24:32;6.60;;;3.03;;
10450;SDS011;5273;51.290;6.918;2022-12-07T11:27:10;8.50;;;2.83;;
10450;SDS011;5273;51.290;6.918;2022-12-07T11:29:53;6.77;;;2.87;;
10450;SDS011;5273;51.290;6.918;2022-12-07T11:32:34;7.03;;;3.33;;
10450;SDS011;5273;51.290;6.918;2022-12-07T11:35:21;7.70;;;3.20;;
10450;SDS011;5273;51.290;6.918;2022-12-07T11:37:55;5.53;;;3.30;;
10450;SDS011;5273;51.290;6.918;2022-12-07T11:40:26;9.30;;;3.93;;
10450;SDS011;5273;51.290;6.918;2022-12-07T11:42:56;7.27;;;2.90;;
10450;SDS011;5273;51.290;6.918;2022-12-07T11:45:34;4.33;;;2.80;;
10450;SDS011;5273;51.290;6.918;2022-12-07T11:48:10;5.20;;;3.43;;
10450;SDS011;5273;51.290;6.918;2022-12-07T11:50:42;8.33;;;3.23;;
10450;SDS011;5273;51.290;6.918;2022-12-07T11:53:14;7.43;;;3.77;;
10450;SDS011;5273;51.290;6.918;2022-12-07T11:55:46;9.53;;;3.83;;
10450;SDS011;5273;51.290;6.918;2022-12-07T11:58:21;6.77;;;3.47;;
10450;SDS011;5273;51.290;6.918;2022-12-07T12:01:04;6.87;;;3.17;;
10450;SDS011;5273;51.290;6.918;2022-12-07T12:03:40;6.20;;;3.27;;
10450;SDS011;5273;51.290;6.918;2022-12-07T12:06:13;5.13;;;2.87;;
10450;SDS011;5273;51.290;6.918;2022-12-07T12:08:41;7.03;;;3.50;;
10450;SDS011;5273;51.290;6.918;2022-12-07T12:11:14;3.70;;;2.40;;
10450;SDS011;5273;51.290;6.918;2022-12-07T12:13:52;6.63;;;2.63;;
10450;SDS011;5273;51.290;6.918;2022-12-07T12:16:49;3.30;;;2.20;;
10450;SDS011;5273;51.290;6.918;2022-12-07T12:19:37;5.40;;;2.60;;
10450;SDS011;5273;51.290;6.918;2022-12-07T12:22:12;6.60;;;2.90;;
10450;SDS011;5273;51.290;6.918;2022-12-07T12:24:43;6.00;;;2.70;;
10450;SDS011;5273;51.290;6.918;2022-12-07T12:27:17;3.93;;;2.50;;
10450;SDS011;5273;51.290;6.918;2022-12-07T12:29:51;6.77;;;3.10;;
10450;SDS011;5273;51.290;6.918;2022-12-07T12:32:20;4.27;;;2.33;;
10450;SDS011;5273;51.290;6.918;2022-12-07T12:35:01;8.00;;;3.03;;
10450;SDS011;5273;51.290;6.918;2022-12-07T12:37:47;7.20;;;2.90;;
10450;SDS011;5273;51.290;6.918;2022-12-07T12:51:59;3.60;;;2.53;;
10450;SDS011;5273;51.290;6.918;2022-12-07T12:54:30;9.20;;;2.70;;
10450;SDS011;5273;51.290;6.918;2022-12-07T12:56:59;4.27;;;2.10;;
10450;SDS011;5273;51.290;6.918;2022-12-07T12:59:32;5.93;;;2.57;;
10450;SDS011;5273;51.290;6.918;2022-12-07T13:02:09;3.63;;;2.63;;
10450;SDS011;5273;51.290;6.918;2022-12-07T13:04:50;6.73;;;2.20;;
10450;SDS011;5273;51.290;6.918;2022-12-07T13:10:22;4.63;;;2.80;;
10450;SDS011;5273;51.290;6.918;2022-12-07T13:25:20;1.60;;;1.50;;
10450;SDS011;5273;51.290;6.918;2022-12-07T13:28:09;3.60;;;2.07;;
10450;SDS011;5273;51.290;6.918;2022-12-07T13:30:43;6.73;;;1.60;;
10450;SDS011;5273;51.290;6.918;2022-12-07T13:33:16;6.70;;;1.67;;
10450;SDS011;5273;51.290;6.918;2022-12-07T13:35:44;4.27;;;1.60;;
10450;SDS011;5273;51.290;6.918;2022-12-07T13:41:14;2.37;;;1.83;;
10450;SDS011;5273;51.290;6.918;2022-12-07T13:43:43;3.47;;;2.63;;
10450;SDS011;5273;51.290;6.918;2022-12-07T13:46:11;5.80;;;2.87;;
10450;SDS011;5273;51.290;6.918;2022-12-07T13:48:43;3.60;;;2.50;;
10450;SDS011;5273;51.290;6.918;2022-12-07T13:51:17;4.37;;;2.50;;
10450;SDS011;5273;51.290;6.918;2022-12-07T13:53:46;5.60;;;2.50;;
10450;SDS011;5273;51.290;6.918;2022-12-07T13:56:15;5.40;;;2.67;;
10450;SDS011;5273;51.290;6.918;2022-12-07T13:58:42;6.13;;;2.90;;
10450;SDS011;5273;51.290;6.918;2022-12-07T14:01:09;7.77;;;3.17;;
10450;SDS011;5273;51.290;6.918;2022-12-07T14:03:38;5.47;;;3.00;;
10450;SDS011;5273;51.290;6.918;2022-12-07T14:09:05;9.60;;;3.40;;
10450;SDS011;5273;51.290;6.918;2022-12-07T14:11:45;5.97;;;2.50;;
10450;SDS011;5273;51.290;6.918;2022-12-07T14:14:14;2.90;;;2.07;;
10450;SDS011;5273;51.290;6.918;2022-12-07T14:16:54;4.00;;;2.13;;
10450;SDS011;5273;51.290;6.918;2022-12-07T14:19:39;5.00;;;2.10;;
10450;SDS011;5273;51.290;6.918;2022-12-07T14:22:09;8.37;;;2.40;;
10450;SDS011;5273;51.290;6.918;2022-12-07T14:24:46;7.93;;;2.20;;
10450;SDS011;5273;51.290;6.918;2022-12-07T14:27:20;9.17;;;2.57;;
10450;SDS011;5273;51.290;6.918;2022-12-07T14:29:51;5.23;;;2.17;;
10450;SDS011;5273;51.290;6.918;2022-12-07T14:32:21;4.77;;;2.10;;
10450;SDS011;5273;51.290;6.918;2022-12-07T14:34:57;4.03;;;1.90;;
10450;SDS011;5273;51.290;6.918;2022-12-07T14:37:26;5.20;;;1.80;;
10450;SDS011;5273;51.290;6.918;2022-12-07T14:39:54;5.10;;;1.90;;
10450;SDS011;5273;51.290;6.918;2022-12-07T14:42:22;7.33;;;1.83;;
10450;SDS011;5273;51.290;6.918;2022-12-07T14:44:52;2.07;;;1.60;;
10450;SDS011;5273;51.290;6.918;2022-12-07T14:47:19;5.00;;;1.90;;
10450;SDS011;5273;51.290;6.918;2022-12-07T14:49:45;4.73;;;1.60;;
10450;SDS011;5273;51.290;6.918;2022-12-07T14:52:13;5.33;;;2.00;;
10450;SDS011;5273;51.290;6.918;2022-12-07T14:54:42;4.93;;;1.63;;
10450;SDS011;5273;51.290;6.918;2022-12-07T14:57:10;4.20;;;2.40;;
10450;SDS011;5273;51.290;6.918;2022-12-07T14:59:38;4.60;;;2.10;;
10450;SDS011;5273;51.290;6.918;2022-12-07T15:02:05;4.93;;;1.90;;
10450;SDS011;5273;51.290;6.918;2022-12-07T15:04:33;4.77;;;2.00;;
10450;SDS011;5273;51.290;6.918;2022-12-07T15:07:00;3.57;;;1.57;;
10450;SDS011;5273;51.290;6.918;2022-12-07T15:09:29;5.03;;;1.83;;
10450;SDS011;5273;51.290;6.918;2022-12-07T15:11:56;5.73;;;2.50;;
10450;SDS011;5273;51.290;6.918;2022-12-07T15:14:23;7.43;;;2.40;;
10450;SDS011;5273;51.290;6.918;2022-12-07T15:16:51;5.97;;;2.33;;
10450;SDS011;5273;51.290;6.918;2022-12-07T15:19:19;4.57;;;2.53;;
10450;SDS011;5273;51.290;6.918;2022-12-07T15:21:50;7.13;;;2.30;;
10450;SDS011;5273;51.290;6.918;2022-12-07T15:24:17;7.23;;;3.10;;
10450;SDS011;5273;51.290;6.918;2022-12-07T15:26:44;8.50;;;2.70;;
10450;SDS011;5273;51.290;6.918;2022-12-07T15:29:11;3.20;;;2.47;;
10450;SDS011;5273;51.290;6.918;2022-12-07T15:31:39;3.90;;;3.10;;
10450;SDS011;5273;51.290;6.918;2022-12-07T15:34:08;7.53;;;3.00;;
10450;SDS011;5273;51.290;6.918;2022-12-07T15:36:35;5.03;;;2.90;;
10450;SDS011;5273;51.290;6.918;2022-12-07T15:39:02;6.70;;;2.80;;
10450;SDS011;5273;51.290;6.918;2022-12-07T15:41:28;4.57;;;2.60;;
10450;SDS011;5273;51.290;6.918;2022-12-07T15:43:55;5.63;;;2.70;;